Airfield :
LOGIN :

Register | Disclaimer

   EN    FR    IT 

 










Legend :    VFR   Marginal VFR   IFR   Intensive IFR   Very Intensive IFR
Visi :
Ceiling :
>= 8 km
>= 3000ft
5 to 8 km
1000 to 3000 ft
1500m to 5 km
500 to 1000 ft
800 to 1500m
200 to 500 ft
< 800m
< 200 ft
Symbols :   Thunderstorms  Fog  Heavy snow  Heavy precipitations  Wind > 20 kt
SIGMETs :     Misc.  Thunderstorms  Icing  Turbulence  Mountain Waves  Volcanic Ashes






- Airport Elevation : 1470 ft
- IATA code : KLU


LOWK - Klagenfurt

CURRENT METAR :
  • 172120Z AUTO VRB01KT 9999 FEW070 BKN080 00/M01 Q1026

EXPIRED METARs :
  • 172050Z AUTO 29005KT 9999 FEW070 BKN080 M00/M02 Q1026
  • 172020Z AUTO VRB02KT 9999 BKN070 M01/M02 Q1025
  • 171950Z AUTO VRB02KT 9999 FEW070 SCT080 M01/M02 Q1025
  • 171920Z 27004KT 230V340 9999 SCT080 M00/M01 Q1024 NOSIG
  • 171850Z VRB02KT 9999 SCT080 M01/M02 Q1024 NOSIG

TAF TAF LOWK
Valid from the 17 at 18:00 until the 18 at 18:00 UTC


171715Z 1718/1818 VRB02KT 9999 FEW050 TX04/1814Z TNM04/1805Z
TEMPO 1720/1810 1200 BCFG BKN003
PROB30
TEMPO 1722/1807 0300 FZFG VV001



MET'MAP, your aeronautical weather chart ! - Copyright ORBIFLY December 2007 - Disclaimer

ORBIFLY MET'MAP TEAM :

Programming & Development : Alexandra Zaïnal
Concept & original design : Baudouin d'Aumeries
Assistance for programming : Marc-Olivier Méhu
Technical & hardware support : Manuel Goepfert

Contact : metmap@orbifly.com




SOURCES & CREDITS :

   NOAA